createdAt,value
2018-03-11T00:01:55.637Z,14.47
2018-03-11T00:04:23.994Z,13.67
2018-03-11T00:06:52.364Z,14.13
2018-03-11T00:09:20.729Z,13.13
2018-03-11T00:11:49.098Z,13.43
2018-03-11T00:14:17.456Z,14.03
2018-03-11T00:16:45.865Z,13.43
2018-03-11T00:19:14.225Z,14.23
2018-03-11T00:21:43.398Z,14.70
2018-03-11T00:24:11.794Z,14.00
2018-03-11T00:26:41.011Z,14.13
2018-03-11T00:29:09.308Z,14.50
2018-03-11T00:31:37.710Z,14.80
2018-03-11T00:34:06.085Z,14.63
2018-03-11T00:36:34.435Z,14.20
2018-03-11T00:39:02.791Z,13.93
2018-03-11T00:41:31.925Z,14.30
2018-03-11T00:44:00.297Z,13.87
2018-03-11T00:46:28.697Z,14.40
2018-03-11T00:48:57.083Z,14.90
2018-03-11T00:51:25.491Z,13.73
2018-03-11T00:53:53.880Z,14.23
2018-03-11T00:56:22.264Z,14.90
2018-03-11T00:58:51.413Z,14.23
2018-03-11T01:01:19.800Z,13.53
2018-03-11T01:03:48.154Z,13.50
2018-03-11T01:06:16.517Z,13.53
2018-03-11T01:08:44.989Z,14.40
2018-03-11T01:11:14.109Z,13.03
2018-03-11T01:13:42.459Z,13.30
2018-03-11T01:16:11.607Z,13.97
2018-03-11T01:18:39.982Z,13.27
2018-03-11T01:21:08.351Z,14.87
2018-03-11T01:23:36.692Z,15.00
2018-03-11T01:26:05.827Z,16.20
2018-03-11T01:28:34.194Z,15.33
2018-03-11T01:31:02.572Z,15.33
2018-03-11T01:33:30.924Z,14.40
2018-03-11T01:35:59.292Z,14.50
2018-03-11T01:38:27.657Z,15.13
2018-03-11T01:40:56.099Z,15.87
2018-03-11T01:43:24.458Z,16.40
2018-03-11T01:45:53.554Z,14.90
2018-03-11T01:48:22.649Z,15.10
2018-03-11T01:50:51.017Z,15.33
2018-03-11T01:53:21.010Z,16.27
2018-03-11T01:55:49.386Z,15.40
2018-03-11T01:58:17.738Z,15.20
2018-03-11T02:00:46.102Z,14.23
2018-03-11T02:03:14.466Z,15.50
2018-03-11T02:05:42.863Z,14.93
2018-03-11T02:08:11.257Z,15.27
2018-03-11T02:10:39.628Z,16.00
2018-03-11T02:13:07.980Z,15.97
2018-03-11T02:15:36.455Z,17.87
2018-03-11T02:18:04.825Z,15.90
2018-03-11T02:20:33.977Z,15.17
2018-03-11T02:23:02.341Z,14.57
2018-03-11T02:25:30.692Z,16.53
2018-03-11T02:27:59.054Z,15.33
2018-03-11T02:30:28.186Z,15.83
2018-03-11T02:32:56.544Z,16.03
2018-03-11T02:35:25.715Z,17.53
2018-03-11T02:37:54.671Z,16.07
2018-03-11T02:40:23.021Z,17.53
2018-03-11T02:42:51.415Z,16.10
2018-03-11T02:45:19.800Z,15.87
2018-03-11T02:47:48.144Z,18.37
2018-03-11T02:50:16.502Z,17.00
2018-03-11T02:52:44.983Z,18.60
2018-03-11T02:55:13.344Z,18.63
2018-03-11T02:57:41.697Z,17.50
2018-03-11T03:00:10.065Z,18.47
2018-03-11T03:02:38.438Z,16.80
2018-03-11T03:05:06.793Z,16.67
2018-03-11T03:07:35.928Z,17.40
2018-03-11T03:10:04.307Z,17.93
2018-03-11T03:12:32.675Z,18.37
2018-03-11T03:15:01.896Z,17.43
2018-03-11T03:17:30.329Z,16.80
2018-03-11T03:19:59.607Z,18.17
2018-03-11T03:22:28.022Z,17.93
2018-03-11T03:24:57.192Z,18.40
2018-03-11T03:27:25.629Z,17.33
2018-03-11T03:29:54.006Z,18.13
2018-03-11T03:32:22.435Z,18.93
2018-03-11T03:34:50.854Z,18.00
2018-03-11T03:37:19.397Z,18.30
2018-03-11T03:39:47.808Z,17.80
2018-03-11T03:42:16.977Z,19.20
2018-03-11T03:44:45.444Z,18.57
2018-03-11T03:47:13.838Z,18.90
2018-03-11T03:49:42.259Z,18.33
2018-03-11T03:52:10.818Z,20.33
2018-03-11T03:54:39.945Z,17.87
2018-03-11T03:57:08.307Z,18.97
2018-03-11T03:59:36.725Z,17.47
2018-03-11T04:02:05.093Z,17.33
2018-03-11T04:04:33.452Z,18.97
2018-03-11T04:07:01.818Z,17.87
2018-03-11T04:09:30.185Z,20.60
2018-03-11T04:11:58.543Z,18.73
2018-03-11T04:14:26.909Z,19.20
2018-03-11T04:16:55.265Z,19.80
2018-03-11T04:19:23.641Z,19.53
2018-03-11T04:21:52.009Z,18.90
2018-03-11T04:24:20.450Z,19.43
2018-03-11T04:26:48.804Z,18.70
2018-03-11T04:29:17.174Z,21.00
2018-03-11T04:31:45.531Z,18.73
2018-03-11T04:34:13.946Z,20.37
2018-03-11T04:36:42.416Z,21.57
2018-03-11T04:39:10.766Z,21.17
2018-03-11T04:41:39.121Z,21.10
2018-03-11T04:44:08.240Z,21.87
2018-03-11T04:46:36.596Z,21.50
2018-03-11T04:49:05.722Z,22.20
2018-03-11T04:51:34.140Z,22.83
2018-03-11T04:54:02.499Z,25.17
2018-03-11T04:56:30.872Z,22.33
2018-03-11T04:58:59.257Z,24.90
2018-03-11T05:01:27.671Z,24.27
2018-03-11T05:03:56.015Z,25.13
2018-03-11T05:06:24.357Z,24.10
2018-03-11T05:08:53.490Z,23.67
2018-03-11T05:11:21.850Z,25.77
2018-03-11T05:13:50.224Z,25.53
2018-03-11T05:16:18.589Z,26.93
2018-03-11T05:18:46.969Z,25.50
2018-03-11T05:21:16.111Z,28.10
2018-03-11T05:23:44.540Z,29.90
2018-03-11T05:26:12.887Z,29.43
2018-03-11T05:28:41.228Z,30.73
2018-03-11T05:31:09.602Z,29.47
2018-03-11T05:33:37.969Z,29.87
2018-03-11T05:36:06.333Z,30.60
2018-03-11T05:38:35.951Z,31.87
2018-03-11T05:41:05.055Z,32.67
2018-03-11T05:43:33.416Z,33.00
2018-03-11T05:46:02.632Z,35.43
2018-03-11T05:48:31.038Z,31.70
2018-03-11T05:50:59.379Z,32.43
2018-03-11T05:53:28.583Z,29.60
2018-03-11T05:55:57.739Z,30.90
2018-03-11T05:58:26.090Z,32.87
2018-03-11T06:00:54.455Z,33.07
2018-03-11T06:03:22.814Z,32.13
2018-03-11T06:05:51.189Z,35.23
2018-03-11T06:08:20.354Z,29.80
2018-03-11T06:10:48.783Z,31.70
2018-03-11T06:13:17.256Z,33.07
2018-03-11T06:15:46.357Z,31.30
2018-03-11T06:18:14.772Z,30.90
2018-03-11T06:20:43.238Z,31.70
2018-03-11T06:23:11.579Z,32.00
2018-03-11T06:25:40.696Z,31.67
2018-03-11T06:28:09.056Z,33.33
2018-03-11T06:30:38.176Z,31.83
2018-03-11T06:33:06.572Z,32.40
2018-03-11T06:35:34.939Z,34.07
2018-03-11T06:38:03.318Z,34.50
2018-03-11T06:40:31.675Z,32.33
2018-03-11T06:43:00.194Z,32.63
2018-03-11T06:45:28.578Z,27.80
2018-03-11T06:47:56.928Z,29.50
2018-03-11T06:50:25.310Z,28.87
2018-03-11T06:52:53.665Z,29.00
2018-03-11T06:55:22.130Z,30.23
2018-03-11T06:57:50.489Z,29.53
2018-03-11T07:00:18.888Z,29.60
2018-03-11T07:02:47.448Z,27.07
2018-03-11T07:05:15.784Z,29.67
2018-03-11T07:07:44.187Z,26.83
2018-03-11T07:10:12.540Z,27.43
2018-03-11T07:12:41.681Z,25.03
2018-03-11T07:15:10.060Z,26.57
2018-03-11T07:17:38.468Z,25.47
2018-03-11T07:20:06.838Z,27.63
2018-03-11T07:22:35.201Z,24.50
2018-03-11T07:25:03.567Z,23.27
2018-03-11T07:27:31.921Z,25.47
2018-03-11T07:30:00.284Z,21.67
2018-03-11T07:32:31.497Z,25.90
2018-03-11T07:35:00.664Z,24.07
2018-03-11T07:37:29.012Z,22.80
2018-03-11T07:39:57.415Z,24.63
2018-03-11T07:42:25.862Z,22.50
2018-03-11T07:44:54.709Z,25.33
2018-03-11T07:47:23.077Z,22.77
2018-03-11T07:49:51.467Z,22.20
2018-03-11T07:52:19.845Z,21.10
2018-03-11T07:54:48.324Z,20.97
2018-03-11T07:57:16.729Z,22.33
2018-03-11T07:59:45.180Z,20.93
2018-03-11T08:02:13.603Z,23.30
2018-03-11T08:04:41.984Z,18.50
2018-03-11T08:07:10.352Z,22.63
2018-03-11T08:09:38.842Z,21.33
2018-03-11T08:12:07.284Z,20.70
2018-03-11T08:14:35.693Z,17.73
2018-03-11T08:17:04.028Z,18.30
2018-03-11T08:19:32.447Z,16.10
2018-03-11T08:22:00.798Z,16.50
2018-03-11T08:24:29.251Z,14.60
2018-03-11T08:26:57.633Z,16.67
2018-03-11T08:29:26.010Z,23.63
2018-03-11T08:31:54.383Z,15.20
2018-03-11T08:34:23.505Z,13.13
2018-03-11T08:36:51.867Z,14.60
2018-03-11T08:39:20.278Z,13.67
2018-03-11T08:41:48.736Z,13.73
2018-03-11T08:46:51.970Z,9.30
2018-03-11T08:49:20.361Z,9.80
2018-03-11T08:51:48.864Z,10.33
2018-03-11T08:54:17.215Z,10.37
2018-03-11T08:56:45.559Z,10.47
2018-03-11T08:59:13.982Z,9.93
2018-03-11T09:01:42.327Z,11.13
2018-03-11T09:04:10.698Z,9.10
2018-03-11T09:06:39.317Z,11.00
2018-03-11T09:09:07.671Z,10.13
2018-03-11T09:11:36.055Z,10.50
2018-03-11T09:14:04.439Z,10.43
2018-03-11T09:16:32.779Z,8.73
2018-03-11T09:19:01.888Z,10.67
2018-03-11T09:21:30.272Z,10.33
2018-03-11T09:23:58.631Z,11.03
2018-03-11T09:26:27.750Z,10.60
2018-03-11T09:28:56.106Z,9.20
2018-03-11T09:31:24.488Z,10.17
2018-03-11T09:33:53.627Z,8.77
2018-03-11T09:36:22.211Z,11.20
2018-03-11T09:38:51.282Z,10.13
2018-03-11T09:41:20.567Z,9.27
2018-03-11T09:43:48.942Z,9.73
2018-03-11T09:46:17.576Z,8.23
2018-03-11T09:48:45.980Z,8.40
2018-03-11T09:51:14.354Z,13.33
2018-03-11T09:53:42.712Z,9.17
2018-03-11T09:56:11.145Z,7.97
2018-03-11T09:58:40.279Z,9.67
2018-03-11T10:01:08.609Z,8.27
2018-03-11T10:03:37.015Z,10.07
2018-03-11T10:06:06.182Z,6.93
2018-03-11T10:08:34.553Z,8.03
2018-03-11T10:11:02.953Z,7.77
2018-03-11T10:13:32.076Z,7.60
2018-03-11T10:16:00.560Z,7.77
2018-03-11T10:18:28.935Z,8.10
2018-03-11T10:20:58.094Z,9.37
2018-03-11T10:23:26.439Z,7.40
2018-03-11T10:25:54.795Z,7.93
2018-03-11T10:28:23.145Z,8.57
2018-03-11T10:30:52.330Z,8.17
2018-03-11T10:33:20.685Z,9.47
2018-03-11T10:35:49.058Z,8.33
2018-03-11T10:38:17.403Z,8.80
2018-03-11T10:40:45.841Z,8.43
2018-03-11T10:43:14.164Z,8.40
2018-03-11T10:45:42.506Z,8.03
2018-03-11T10:48:10.898Z,8.33
2018-03-11T10:50:39.272Z,9.20
2018-03-11T10:53:07.748Z,9.10
2018-03-11T10:55:36.275Z,7.87
2018-03-11T10:58:05.381Z,7.60
2018-03-11T11:00:39.423Z,8.27
2018-03-11T11:03:27.574Z,9.43
2018-03-11T11:05:56.843Z,8.43
2018-03-11T11:08:25.223Z,8.40
2018-03-11T11:10:53.561Z,10.20
2018-03-11T11:13:21.919Z,9.17
2018-03-11T11:15:50.262Z,8.13
2018-03-11T11:18:18.641Z,8.27
2018-03-11T11:20:46.998Z,7.70
2018-03-11T11:23:15.386Z,7.23
2018-03-11T11:25:43.780Z,6.47
2018-03-11T11:28:12.143Z,7.70
2018-03-11T11:30:40.555Z,6.80
2018-03-11T11:33:08.928Z,7.07
2018-03-11T11:35:37.286Z,6.73
2018-03-11T11:38:05.616Z,7.63
2018-03-11T11:40:34.950Z,7.30
2018-03-11T11:43:03.312Z,5.83
2018-03-11T11:45:32.436Z,6.63
2018-03-11T11:48:00.832Z,7.53
2018-03-11T11:50:29.240Z,8.77
2018-03-11T11:52:57.592Z,7.23
2018-03-11T11:55:25.947Z,6.90
2018-03-11T11:57:54.297Z,8.93
2018-03-11T12:00:23.461Z,6.77
2018-03-11T12:02:51.946Z,6.53
2018-03-11T12:05:20.356Z,6.90
2018-03-11T12:07:48.729Z,8.37
2018-03-11T12:10:17.071Z,8.43
2018-03-11T12:12:45.497Z,6.33
2018-03-11T12:15:14.617Z,22.10
2018-03-11T12:17:42.969Z,7.30
2018-03-11T12:20:11.318Z,6.27
2018-03-11T12:22:39.682Z,6.10
2018-03-11T12:25:08.109Z,6.53
2018-03-11T12:27:37.243Z,8.43
2018-03-11T12:30:05.625Z,6.67
2018-03-11T12:32:34.110Z,6.90
2018-03-11T12:35:02.660Z,7.13
2018-03-11T12:37:31.971Z,8.33
2018-03-11T12:40:01.084Z,8.23
2018-03-11T12:42:29.416Z,8.20
2018-03-11T12:44:57.762Z,7.47
2018-03-11T12:47:26.119Z,8.10
2018-03-11T12:49:54.469Z,7.63
2018-03-11T12:52:24.213Z,8.40
2018-03-11T12:54:52.571Z,10.23
2018-03-11T12:57:20.951Z,7.93
2018-03-11T12:59:49.288Z,8.40
2018-03-11T13:02:17.644Z,9.70
2018-03-11T13:04:46.013Z,8.87
2018-03-11T13:07:14.458Z,10.40
2018-03-11T13:09:43.561Z,9.73
2018-03-11T13:12:11.909Z,10.17
2018-03-11T13:14:40.289Z,16.67
2018-03-11T13:17:08.673Z,11.50
2018-03-11T13:19:37.031Z,10.83
2018-03-11T13:22:05.448Z,10.17
2018-03-11T13:24:34.641Z,9.20
2018-03-11T13:27:03.060Z,8.77
2018-03-11T13:29:31.390Z,9.03
2018-03-11T13:32:11.677Z,8.53
2018-03-11T13:34:40.052Z,9.17
2018-03-11T13:37:08.380Z,8.40
2018-03-11T13:39:48.702Z,8.77
2018-03-11T13:42:17.356Z,8.67
2018-03-11T13:44:45.700Z,9.70
2018-03-11T13:47:14.089Z,7.63
2018-03-11T13:49:42.473Z,9.47
2018-03-11T13:52:22.879Z,8.67
2018-03-11T13:54:52.221Z,12.97
2018-03-11T14:00:37.373Z,10.70
2018-03-11T14:03:05.725Z,9.63
2018-03-11T14:05:34.120Z,9.13
2018-03-11T14:08:02.508Z,15.80
2018-03-11T14:10:30.895Z,11.80
2018-03-11T14:12:59.344Z,10.93
2018-03-11T14:15:27.688Z,10.63
2018-03-11T14:17:56.204Z,10.97
2018-03-11T14:20:25.318Z,11.73
2018-03-11T14:22:54.230Z,9.97
2018-03-11T14:25:22.674Z,9.53
2018-03-11T14:27:51.228Z,9.77
2018-03-11T14:30:19.681Z,10.60
2018-03-11T14:32:48.066Z,9.73
2018-03-11T14:35:16.475Z,14.63
2018-03-11T14:37:44.842Z,16.07
2018-03-11T14:40:13.295Z,13.57
2018-03-11T14:42:41.652Z,10.90
2018-03-11T14:45:10.031Z,12.30
2018-03-11T14:47:38.389Z,13.20
2018-03-11T14:50:07.536Z,25.43
2018-03-11T14:52:35.923Z,13.20
2018-03-11T14:55:04.293Z,12.73
2018-03-11T14:57:32.688Z,12.67
2018-03-11T15:00:01.077Z,12.17
2018-03-11T15:02:29.437Z,12.90
2018-03-11T15:04:57.812Z,13.10
2018-03-11T15:07:26.195Z,12.53
2018-03-11T15:09:54.580Z,14.33
2018-03-11T15:12:23.347Z,13.87
2018-03-11T15:14:51.849Z,13.07
2018-03-11T15:17:20.318Z,14.17
2018-03-11T15:19:48.733Z,12.83
2018-03-11T15:22:17.355Z,10.93
2018-03-11T15:24:46.589Z,12.53
2018-03-11T15:27:14.957Z,15.03
2018-03-11T15:29:43.338Z,11.50
2018-03-11T15:32:11.844Z,12.03
2018-03-11T15:34:40.959Z,12.60
2018-03-11T15:37:09.324Z,16.83
2018-03-11T15:39:37.706Z,32.93
2018-03-11T15:42:06.110Z,14.20
2018-03-11T15:44:34.643Z,12.13
2018-03-11T15:47:03.049Z,10.03
2018-03-11T15:49:31.448Z,12.60
2018-03-11T15:51:59.910Z,12.33
2018-03-11T15:54:28.393Z,13.00
2018-03-11T15:56:56.755Z,12.87
2018-03-11T15:59:25.104Z,11.20
2018-03-11T16:01:53.472Z,12.50
2018-03-11T16:04:21.930Z,10.70
2018-03-11T16:06:50.338Z,10.77
2018-03-11T16:09:18.731Z,11.93
2018-03-11T16:11:47.190Z,13.60
2018-03-11T16:14:15.538Z,11.30
2018-03-11T16:16:43.917Z,11.60
2018-03-11T16:19:12.308Z,11.03
2018-03-11T16:21:40.674Z,10.90
2018-03-11T16:24:09.098Z,9.87
2018-03-11T16:26:38.334Z,10.70
2018-03-11T16:29:06.804Z,11.07
2018-03-11T16:31:35.239Z,9.80
2018-03-11T16:34:03.607Z,9.77
2018-03-11T16:36:31.938Z,11.07
2018-03-11T16:39:00.338Z,10.33
2018-03-11T16:41:28.680Z,13.70
2018-03-11T16:43:57.841Z,9.87
2018-03-11T16:46:26.189Z,11.70
2018-03-11T16:48:54.741Z,11.00
2018-03-11T16:51:23.130Z,11.47
2018-03-11T16:53:51.598Z,11.43
2018-03-11T16:56:20.735Z,12.73
2018-03-11T16:58:49.441Z,10.73
2018-03-11T17:01:18.630Z,10.40
2018-03-11T17:03:47.011Z,11.50
2018-03-11T17:06:15.390Z,11.53
2018-03-11T17:08:44.021Z,11.53
2018-03-11T17:11:12.562Z,12.37
2018-03-11T17:13:40.985Z,25.00
2018-03-11T17:16:09.370Z,16.57
2018-03-11T17:18:37.762Z,14.47
2018-03-11T17:21:06.130Z,12.30
2018-03-11T17:23:34.510Z,12.13
2018-03-11T17:26:03.637Z,12.57
2018-03-11T17:28:32.040Z,15.13
2018-03-11T17:31:00.406Z,14.20
2018-03-11T17:33:28.780Z,15.57
2018-03-11T17:35:57.157Z,13.50
2018-03-11T17:38:25.531Z,19.77
2018-03-11T17:40:53.897Z,16.07
2018-03-11T17:43:22.272Z,13.47
2018-03-11T17:45:50.665Z,15.27
2018-03-11T17:48:19.049Z,13.73
2018-03-11T17:50:48.195Z,14.33
2018-03-11T17:53:17.333Z,13.60
2018-03-11T17:55:45.725Z,13.50
2018-03-11T17:58:14.113Z,13.77
2018-03-11T18:00:42.518Z,14.90
2018-03-11T18:03:10.918Z,15.77
2018-03-11T18:05:39.279Z,35.17
2018-03-11T18:08:07.668Z,22.73
2018-03-11T18:10:36.033Z,18.20
2018-03-11T18:13:04.417Z,15.13
2018-03-11T18:15:32.886Z,14.77
2018-03-11T18:18:01.442Z,16.13
2018-03-11T18:20:29.811Z,19.33
2018-03-11T18:22:58.242Z,14.57
2018-03-11T18:25:26.673Z,14.83
2018-03-11T18:27:55.073Z,14.70
2018-03-11T18:30:23.534Z,15.57
2018-03-11T18:32:51.890Z,16.60
2018-03-11T18:35:20.250Z,16.60
2018-03-11T18:37:48.639Z,17.43
2018-03-11T18:40:17.767Z,16.90
2018-03-11T18:42:46.162Z,16.07
2018-03-11T18:45:14.538Z,16.30
2018-03-11T18:47:43.004Z,17.20
2018-03-11T18:50:11.338Z,16.57
2018-03-11T18:52:39.769Z,16.90
2018-03-11T18:55:09.029Z,23.90
2018-03-11T18:57:37.369Z,20.57
2018-03-11T19:00:05.738Z,19.20
2018-03-11T19:02:34.269Z,22.83
2018-03-11T19:05:02.633Z,23.10
2018-03-11T19:07:31.205Z,21.20
2018-03-11T19:09:59.717Z,19.10
2018-03-11T19:12:28.846Z,17.00
2018-03-11T19:14:57.231Z,18.27
2018-03-11T19:17:26.205Z,19.77
2018-03-11T19:19:54.645Z,16.70
2018-03-11T19:22:23.011Z,16.10
2018-03-11T19:24:51.389Z,15.20
2018-03-11T19:27:19.764Z,19.57
2018-03-11T19:29:48.344Z,16.83
2018-03-11T19:32:16.714Z,20.63
2018-03-11T19:34:45.108Z,17.13
2018-03-11T19:37:13.589Z,18.50
2018-03-11T19:39:41.999Z,21.83
2018-03-11T19:42:10.529Z,18.37
2018-03-11T19:44:38.905Z,19.13
2018-03-11T19:47:07.281Z,17.43
2018-03-11T19:49:35.640Z,18.50
2018-03-11T19:52:04.768Z,20.93
2018-03-11T19:54:33.125Z,19.07
2018-03-11T19:57:01.608Z,20.03
2018-03-11T19:59:29.985Z,18.47
2018-03-11T20:01:58.414Z,23.87
2018-03-11T20:04:27.729Z,20.00
2018-03-11T20:06:56.181Z,17.13
2018-03-11T20:09:24.576Z,18.90
2018-03-11T20:11:52.949Z,17.33
2018-03-11T20:14:21.324Z,19.73
2018-03-11T20:16:49.834Z,15.27
2018-03-11T20:19:18.225Z,17.03
2018-03-11T20:21:46.603Z,14.60
2018-03-11T20:24:14.987Z,15.47
2018-03-11T20:26:43.360Z,15.00
2018-03-11T20:29:11.724Z,14.90
2018-03-11T20:31:40.110Z,14.83
2018-03-11T20:34:08.709Z,16.87
2018-03-11T20:36:37.220Z,12.80
2018-03-11T20:39:05.636Z,11.57
2018-03-11T20:41:34.177Z,9.57
2018-03-11T20:44:03.410Z,10.47
2018-03-11T20:46:31.801Z,11.33
2018-03-11T20:49:00.165Z,10.70
2018-03-11T20:51:28.495Z,9.97
2018-03-11T20:53:57.637Z,9.70
2018-03-11T20:56:26.025Z,10.17
2018-03-11T20:58:54.477Z,13.13
2018-03-11T21:01:22.907Z,12.60
2018-03-11T21:03:52.435Z,11.90
2018-03-11T21:06:21.747Z,12.57
2018-03-11T21:08:50.079Z,12.10
2018-03-11T21:11:18.453Z,11.90
2018-03-11T21:13:46.889Z,11.40
2018-03-11T21:16:15.250Z,12.93
2018-03-11T21:18:44.398Z,13.27
2018-03-11T21:21:12.795Z,13.23
2018-03-11T21:23:41.302Z,15.93
2018-03-11T21:26:09.781Z,17.40
2018-03-11T21:28:38.133Z,14.13
2018-03-11T21:31:06.504Z,16.43
2018-03-11T21:33:35.040Z,16.13
2018-03-11T21:36:04.160Z,17.33
2018-03-11T21:38:32.533Z,16.57
2018-03-11T21:41:00.946Z,17.27
2018-03-11T21:43:29.321Z,17.73
2018-03-11T21:45:57.677Z,17.10
2018-03-11T21:48:26.053Z,17.23
2018-03-11T21:50:54.414Z,16.70
2018-03-11T21:53:23.548Z,16.97
2018-03-11T21:55:52.061Z,15.07
2018-03-11T21:58:20.417Z,17.73
2018-03-11T22:00:48.817Z,18.53
2018-03-11T22:03:17.274Z,18.37
2018-03-11T22:05:45.634Z,18.67
2018-03-11T22:08:13.992Z,19.73
2018-03-11T22:10:42.413Z,20.60
2018-03-11T22:13:10.755Z,20.60
2018-03-11T22:15:39.266Z,19.40
2018-03-11T22:18:07.860Z,19.73
2018-03-11T22:20:36.218Z,18.40
2018-03-11T22:23:04.692Z,18.83
2018-03-11T22:25:33.048Z,19.87
2018-03-11T22:28:02.171Z,16.27
2018-03-11T22:30:30.533Z,20.00
2018-03-11T22:32:58.925Z,19.93
2018-03-11T22:35:27.322Z,16.70
2018-03-11T22:37:55.694Z,20.77
2018-03-11T22:40:24.102Z,18.40
2018-03-11T22:42:52.476Z,18.03
2018-03-11T22:45:20.836Z,18.07
2018-03-11T22:47:49.238Z,21.87
2018-03-11T22:50:17.655Z,20.03
2018-03-11T22:52:46.037Z,20.17
2018-03-11T22:55:14.411Z,18.73
2018-03-11T22:57:42.799Z,20.47
2018-03-11T23:00:11.169Z,19.70
2018-03-11T23:02:39.591Z,21.03
2018-03-11T23:05:08.067Z,20.07
2018-03-11T23:07:36.453Z,20.00
2018-03-11T23:10:04.837Z,21.00
2018-03-11T23:12:33.223Z,21.87
2018-03-11T23:15:01.606Z,20.07
2018-03-11T23:17:29.995Z,18.80
2018-03-11T23:19:58.375Z,20.77
2018-03-11T23:22:26.825Z,18.70
2018-03-11T23:24:55.201Z,21.27
2018-03-11T23:27:23.578Z,18.63
2018-03-11T23:29:51.975Z,19.23
2018-03-11T23:32:20.337Z,18.33
2018-03-11T23:34:48.744Z,14.97
2018-03-11T23:37:17.122Z,17.20
2018-03-11T23:39:45.490Z,16.27
2018-03-11T23:42:13.848Z,15.97
2018-03-11T23:44:42.260Z,13.80
2018-03-11T23:47:10.629Z,15.07
2018-03-11T23:49:39.025Z,12.87
2018-03-11T23:52:07.411Z,13.73
2018-03-11T23:54:35.791Z,15.77
2018-03-11T23:57:04.168Z,15.40
2018-03-11T23:59:32.577Z,15.30
